Time;durP1;ratioP1;P1;durP2;ratioP2;P2;SDS_P1;SDS_P2;PMS_P1;PMS_P2;Temp;Humidity;BMP_temperature;BMP_pressure;BME280_temperature;BME280_humidity;BME280_pressure;Samples;Min_cycle;Max_cycle;Signal;HPM_P1;HPM_P2
2022/02/21 00:01:58;;;;;;;8.50;1.35;;;7.80;81.30;;;;;;5031888;28;20026;-88
2022/02/21 00:04:24;;;;;;;7.90;1.60;;;7.80;81.50;;;;;;5036907;28;20034;-89
2022/02/21 00:06:49;;;;;;;8.65;1.38;;;7.80;80.00;;;;;;5032148;28;20025;-88
2022/02/21 00:09:15;;;;;;;6.75;1.50;;;7.90;79.10;;;;;;5067240;28;20017;-89
2022/02/21 00:11:41;;;;;;;13.38;1.85;;;7.80;79.00;;;;;;5062763;28;20066;-89
2022/02/21 00:14:07;;;;;;;12.90;2.17;;;7.80;79.50;;;;;;5031125;28;20055;-89
2022/02/21 00:16:33;;;;;;;8.40;1.65;;;7.80;79.10;;;;;;5030438;28;20079;-88
2022/02/21 00:18:59;;;;;;;8.27;2.00;;;7.70;79.10;;;;;;5064949;28;20025;-88
2022/02/21 00:21:25;;;;;;;12.35;1.98;;;7.70;79.60;;;;;;5081333;28;20025;-87
2022/02/21 00:23:51;;;;;;;11.95;1.90;;;7.70;79.80;;;;;;5070721;28;20074;-89
2022/02/21 00:26:18;;;;;;;6.82;1.58;;;7.60;78.90;;;;;;5069588;28;20029;-89
2022/02/21 00:28:44;;;;;;;8.25;1.77;;;7.60;79.40;;;;;;5084444;28;20028;-89
2022/02/21 00:31:10;;;;;;;10.00;1.80;;;7.60;79.90;;;;;;5055508;28;20078;-89
2022/02/21 00:33:36;;;;;;;8.77;1.63;;;7.60;80.00;;;;;;5054383;28;20024;-89
2022/02/21 00:36:02;;;;;;;7.55;1.70;;;7.60;80.40;;;;;;5029820;28;20100;-88
2022/02/21 00:38:27;;;;;;;13.68;3.33;;;7.60;80.60;;;;;;5038581;28;20020;-88
2022/02/21 00:40:53;;;;;;;9.35;2.08;;;7.60;80.70;;;;;;5053740;28;20392;-88
2022/02/21 00:43:19;;;;;;;12.02;2.05;;;7.60;81.00;;;;;;5053712;28;20094;-89
2022/02/21 00:45:44;;;;;;;13.48;2.05;;;7.50;81.50;;;;;;5070090;28;20094;-88
2022/02/21 00:48:10;;;;;;;10.68;1.95;;;7.50;80.40;;;;;;5037049;28;20040;-88
2022/02/21 00:50:36;;;;;;;13.27;3.05;;;7.50;80.10;;;;;;5053160;28;20123;-88
2022/02/21 00:53:02;;;;;;;10.45;2.05;;;7.50;80.40;;;;;;5071352;28;20058;-88
2022/02/21 00:55:30;;;;;;;16.83;2.90;;;7.50;80.20;;;;;;5052918;28;20025;-88
2022/02/21 00:57:56;;;;;;;16.40;2.33;;;7.50;80.30;;;;;;5036906;28;20063;-89
2022/02/21 01:00:22;;;;;;;13.55;2.25;;;7.40;80.40;;;;;;5054306;28;20028;-88
2022/02/21 01:02:48;;;;;;;15.52;2.80;;;7.40;80.50;;;;;;5071474;28;20033;-88
2022/02/21 01:05:13;;;;;;;14.40;2.40;;;7.40;80.00;;;;;;5073966;28;20036;-87
2022/02/21 01:07:39;;;;;;;13.80;2.60;;;7.40;78.80;;;;;;5074379;28;20020;-89
2022/02/21 01:10:06;;;;;;;14.77;2.80;;;7.40;78.90;;;;;;5040685;28;20514;-88
2022/02/21 01:12:32;;;;;;;13.63;2.90;;;7.40;78.80;;;;;;5075356;28;20040;-87
2022/02/21 01:14:58;;;;;;;15.52;2.88;;;7.40;78.50;;;;;;5073707;28;20029;-88
2022/02/21 01:17:24;;;;;;;10.50;1.92;;;7.40;78.40;;;;;;5056810;28;20027;-88
2022/02/21 01:19:50;;;;;;;12.93;2.28;;;7.40;78.30;;;;;;5057499;28;20385;-89
2022/02/21 01:22:28;;;;;;;13.15;2.15;;;7.20;77.30;;;;;;5057144;28;20029;-90
2022/02/21 01:24:54;;;;;;;14.18;1.90;;;7.10;77.50;;;;;;5074494;28;20024;-89
2022/02/21 01:27:19;;;;;;;13.80;2.15;;;7.00;78.10;;;;;;5057406;28;20043;-88
2022/02/21 01:29:45;;;;;;;12.80;2.22;;;6.90;78.20;;;;;;5073353;28;20028;-87
2022/02/21 01:32:11;;;;;;;13.68;2.42;;;6.90;78.20;;;;;;5040790;28;20098;-88
2022/02/21 01:34:36;;;;;;;10.02;2.00;;;6.90;78.50;;;;;;5057163;28;20028;-88
2022/02/21 01:37:02;;;;;;;10.55;2.20;;;6.80;78.40;;;;;;5056668;28;20020;-88
2022/02/21 01:39:28;;;;;;;12.68;2.53;;;6.80;78.90;;;;;;5040111;28;20020;-87
2022/02/21 01:41:54;;;;;;;16.73;2.90;;;6.80;78.60;;;;;;5040011;28;20499;-87
2022/02/21 01:44:19;;;;;;;15.10;2.80;;;6.80;78.70;;;;;;5040453;28;20538;-87
2022/02/21 01:46:45;;;;;;;15.15;3.13;;;6.80;78.50;;;;;;5072333;28;20025;-88
2022/02/21 01:49:13;;;;;;;17.40;3.60;;;6.80;78.10;;;;;;5056445;28;20505;-88
2022/02/21 01:51:39;;;;;;;14.98;2.83;;;6.80;78.00;;;;;;5072523;28;20024;-87
2022/02/21 01:54:07;;;;;;;17.02;3.25;;;6.80;78.10;;;;;;5056532;28;20062;-87
2022/02/21 01:56:34;;;;;;;15.23;2.58;;;6.80;77.30;;;;;;5073885;28;20155;-88
2022/02/21 01:59:00;;;;;;;10.57;2.20;;;6.80;77.90;;;;;;5056617;28;20115;-88
2022/02/21 02:01:26;;;;;;;11.73;1.70;;;6.80;77.50;;;;;;5039248;28;20071;-88
2022/02/21 02:03:51;;;;;;;13.98;2.50;;;6.80;76.70;;;;;;5039447;28;20519;-87
2022/02/21 02:06:18;;;;;;;15.30;2.47;;;6.80;75.70;;;;;;5039396;28;20113;-89
2022/02/21 02:08:44;;;;;;;13.10;2.47;;;6.80;74.90;;;;;;5064014;28;20072;-88
2022/02/21 02:11:12;;;;;;;11.02;2.10;;;6.80;74.60;;;;;;5069298;28;20029;-88
2022/02/21 02:13:37;;;;;;;12.05;2.03;;;6.70;74.70;;;;;;5086325;28;20033;-87
2022/02/21 02:16:03;;;;;;;15.60;2.58;;;6.70;75.00;;;;;;5038654;28;20690;-88
2022/02/21 02:18:29;;;;;;;16.40;2.30;;;6.70;75.20;;;;;;5038995;28;20515;-88
2022/02/21 02:20:55;;;;;;;17.80;2.53;;;6.70;75.50;;;;;;5071263;28;20051;-88
2022/02/21 02:23:21;;;;;;;14.88;2.33;;;6.70;74.60;;;;;;5055122;28;20587;-87
2022/02/21 02:25:47;;;;;;;8.27;1.92;;;6.70;73.80;;;;;;5017586;28;20044;-87
2022/02/21 02:28:13;;;;;;;13.15;1.90;;;6.70;74.70;;;;;;5032144;28;20037;-87
2022/02/21 02:30:38;;;;;;;14.77;2.13;;;6.70;75.10;;;;;;5055952;28;20017;-87
2022/02/21 02:33:04;;;;;;;11.32;2.20;;;6.70;74.50;;;;;;5068764;28;20094;-87
2022/02/21 02:35:32;;;;;;;12.27;2.58;;;6.70;74.40;;;;;;5068765;28;20237;-88
2022/02/21 02:37:59;;;;;;;11.13;3.47;;;6.70;74.60;;;;;;5051971;28;20029;-87
2022/02/21 02:40:25;;;;;;;14.70;2.53;;;6.80;74.60;;;;;;5052093;28;20014;-87
2022/02/21 02:42:51;;;;;;;13.02;2.17;;;6.80;74.10;;;;;;5035105;28;20448;-87
2022/02/21 02:45:17;;;;;;;16.83;2.75;;;6.80;73.50;;;;;;5035426;28;20025;-88
2022/02/21 02:47:42;;;;;;;12.32;2.08;;;6.70;73.80;;;;;;5051160;28;20492;-88
2022/02/21 02:50:08;;;;;;;13.50;2.45;;;6.70;73.90;;;;;;5062165;28;20104;-89
2022/02/21 02:52:34;;;;;;;15.35;2.58;;;6.70;73.50;;;;;;5071475;28;20033;-88
2022/02/21 02:55:00;;;;;;;10.00;2.50;;;6.60;73.90;;;;;;5071685;28;20662;-87
2022/02/21 02:57:26;;;;;;;16.42;2.25;;;6.50;74.00;;;;;;5071313;28;20053;-87
2022/02/21 02:59:53;;;;;;;16.88;2.53;;;6.50;74.30;;;;;;5055086;28;20044;-87
2022/02/21 03:02:19;;;;;;;11.75;2.08;;;6.50;74.40;;;;;;5071318;28;20465;-87
2022/02/21 03:04:44;;;;;;;10.13;2.25;;;6.50;74.70;;;;;;5054936;28;20025;-87
2022/02/21 03:07:10;;;;;;;15.20;2.83;;;6.50;75.00;;;;;;5071391;28;20033;-87
2022/02/21 03:09:36;;;;;;;13.55;2.08;;;6.50;75.10;;;;;;5071411;28;20035;-88
2022/02/21 03:12:02;;;;;;;13.13;2.30;;;6.50;74.10;;;;;;5071428;28;20024;-88
2022/02/21 03:14:28;;;;;;;15.02;2.67;;;6.50;73.70;;;;;;5071320;28;20035;-88
2022/02/21 03:16:53;;;;;;;18.80;3.40;;;6.50;72.60;;;;;;5054043;28;20021;-87
2022/02/21 03:19:24;;;;;;;11.65;2.10;;;6.50;72.90;;;;;;5071637;28;20016;-87
2022/02/21 03:21:52;;;;;;;15.00;2.65;;;6.40;73.00;;;;;;5072499;28;20113;-88
2022/02/21 03:24:21;;;;;;;13.45;2.90;;;6.40;72.70;;;;;;5072446;28;20033;-87
2022/02/21 03:26:46;;;;;;;11.40;1.98;;;6.40;72.50;;;;;;5050672;28;20029;-88
2022/02/21 03:29:13;;;;;;;9.15;2.38;;;6.50;72.50;;;;;;5051650;28;20021;-88
2022/02/21 03:31:39;;;;;;;14.23;2.20;;;6.50;71.60;;;;;;5051502;28;20056;-88
2022/02/21 03:34:05;;;;;;;11.32;2.60;;;6.50;70.80;;;;;;5034587;28;20507;-88
2022/02/21 03:36:31;;;;;;;11.02;2.10;;;6.50;70.70;;;;;;5042820;28;20128;-87
2022/02/21 03:38:57;;;;;;;14.68;2.53;;;6.50;71.50;;;;;;5030727;28;20108;-88
2022/02/21 03:41:22;;;;;;;19.60;2.35;;;6.50;72.10;;;;;;5030380;28;20033;-88
2022/02/21 03:43:48;;;;;;;13.60;2.47;;;6.40;72.10;;;;;;5041762;28;20029;-88
2022/02/21 03:46:14;;;;;;;12.30;2.25;;;6.30;72.80;;;;;;5037525;28;20029;-87
2022/02/21 03:48:39;;;;;;;11.82;2.22;;;6.30;73.50;;;;;;5016659;28;21964;-87
2022/02/21 03:51:05;;;;;;;14.77;2.28;;;6.20;74.10;;;;;;5033663;28;20030;-88
2022/02/21 03:53:31;;;;;;;15.20;2.00;;;6.20;74.50;;;;;;5033923;28;20516;-88
2022/02/21 03:55:57;;;;;;;15.85;2.40;;;6.20;74.80;;;;;;5050179;28;20040;-88
2022/02/21 03:58:23;;;;;;;13.45;2.10;;;6.10;74.60;;;;;;5013678;28;20052;-88
2022/02/21 04:00:49;;;;;;;8.75;2.00;;;6.10;74.60;;;;;;5030365;28;20033;-88
2022/02/21 04:03:14;;;;;;;13.52;1.98;;;6.10;74.70;;;;;;5030403;28;20029;-88
2022/02/21 04:05:40;;;;;;;10.90;2.03;;;6.10;74.60;;;;;;4997391;28;20456;-88
2022/02/21 04:08:06;;;;;;;10.43;1.92;;;6.10;74.40;;;;;;5014250;28;20022;-88
2022/02/21 04:10:32;;;;;;;12.95;2.45;;;6.10;74.20;;;;;;5030406;28;20532;-88
2022/02/21 04:12:58;;;;;;;12.63;2.03;;;6.10;73.40;;;;;;5031190;28;20025;-87
2022/02/21 04:15:24;;;;;;;13.48;2.17;;;6.10;73.40;;;;;;5014030;28;20040;-87
2022/02/21 04:17:51;;;;;;;16.17;2.63;;;6.10;72.90;;;;;;5030146;28;20148;-87
2022/02/21 04:20:19;;;;;;;11.40;2.30;;;6.10;72.60;;;;;;5031241;28;20029;-87
2022/02/21 04:22:46;;;;;;;11.00;2.22;;;6.10;72.00;;;;;;5031031;28;20108;-87
2022/02/21 04:25:13;;;;;;;9.52;2.03;;;6.10;71.60;;;;;;5013596;28;20641;-87
2022/02/21 04:27:48;;;;;;;14.85;2.20;;;6.20;71.10;;;;;;5029867;28;20017;-87
2022/02/21 04:30:15;;;;;;;15.27;3.42;;;6.20;69.30;;;;;;5030610;28;20028;-87
2022/02/21 04:32:43;;;;;;;14.55;2.55;;;6.10;68.60;;;;;;5029777;28;20416;-87
2022/02/21 04:35:10;;;;;;;14.80;2.22;;;6.20;69.10;;;;;;5029652;28;20028;-87
2022/02/21 04:37:36;;;;;;;12.65;2.78;;;6.20;68.90;;;;;;5029269;28;20037;-87
2022/02/21 04:40:04;;;;;;;19.80;2.88;;;6.20;68.90;;;;;;5029670;28;20025;-87
2022/02/21 04:42:29;;;;;;;14.95;3.22;;;6.20;69.30;;;;;;5029492;28;20120;-87
2022/02/21 04:44:55;;;;;;;9.25;2.03;;;6.20;68.50;;;;;;5046307;28;20145;-87
2022/02/21 04:47:21;;;;;;;16.17;2.78;;;6.20;68.70;;;;;;5029295;28;20036;-88
2022/02/21 04:49:46;;;;;;;13.38;2.30;;;6.20;68.40;;;;;;5062852;28;20076;-88
2022/02/21 04:52:13;;;;;;;10.68;2.40;;;6.20;67.70;;;;;;5029480;28;20025;-88
2022/02/21 04:54:38;;;;;;;11.07;2.50;;;6.20;67.20;;;;;;5046407;28;20180;-88
2022/02/21 04:57:04;;;;;;;9.30;2.10;;;6.20;67.50;;;;;;5022694;28;20124;-89
2022/02/21 04:59:30;;;;;;;11.82;2.58;;;6.20;67.70;;;;;;5054740;28;20031;-88
2022/02/21 05:01:56;;;;;;;14.43;2.00;;;6.20;67.10;;;;;;5032942;28;20021;-88
2022/02/21 05:04:21;;;;;;;11.55;2.22;;;6.10;66.50;;;;;;5033223;28;20044;-87
2022/02/21 05:06:47;;;;;;;12.93;3.25;;;6.10;66.00;;;;;;5032707;28;20052;-88
2022/02/21 05:09:13;;;;;;;16.65;2.20;;;6.10;66.50;;;;;;5032602;28;20025;-88
2022/02/21 05:11:38;;;;;;;12.35;2.08;;;6.10;66.80;;;;;;4994677;28;20034;-88
2022/02/21 05:14:04;;;;;;;10.30;2.38;;;6.10;66.20;;;;;;5058150;28;20044;-88
2022/02/21 05:16:29;;;;;;;10.45;2.22;;;6.10;66.80;;;;;;5000593;28;20657;-88
2022/02/21 05:18:55;;;;;;;12.32;2.95;;;6.10;66.50;;;;;;5029666;28;20034;-88
2022/02/21 05:21:21;;;;;;;13.15;2.05;;;6.10;66.50;;;;;;5029607;28;20028;-88
2022/02/21 05:23:46;;;;;;;14.10;2.30;;;6.10;66.70;;;;;;5029499;28;20060;-87
2022/02/21 05:26:12;;;;;;;16.20;2.55;;;6.10;66.60;;;;;;5029415;28;20076;-88
2022/02/21 05:28:37;;;;;;;11.75;1.90;;;6.10;67.20;;;;;;4993786;28;20053;-88
2022/02/21 05:31:03;;;;;;;15.80;3.17;;;6.10;67.20;;;;;;5026281;28;20076;-88
2022/02/21 05:33:30;;;;;;;13.57;2.25;;;6.10;67.20;;;;;;5026260;28;20034;-89
2022/02/21 05:35:56;;;;;;;11.88;2.30;;;6.10;67.50;;;;;;5055538;28;20030;-87
2022/02/21 05:38:21;;;;;;;11.57;2.15;;;6.20;67.40;;;;;;5013232;28;20501;-88
2022/02/21 05:40:47;;;;;;;9.18;2.20;;;6.20;67.40;;;;;;5012875;28;20025;-87
2022/02/21 05:43:13;;;;;;;12.63;2.47;;;6.10;67.50;;;;;;4996753;28;20443;-88
2022/02/21 05:45:38;;;;;;;11.05;2.60;;;6.20;67.80;;;;;;4996051;28;20049;-88
2022/02/21 05:48:04;;;;;;;11.93;2.10;;;6.10;68.10;;;;;;5012748;28;20060;-87
2022/02/21 05:50:30;;;;;;;13.02;2.22;;;6.10;67.90;;;;;;4998689;28;20022;-88
2022/02/21 05:52:56;;;;;;;14.30;2.40;;;6.10;68.30;;;;;;5000757;28;20534;-88
2022/02/21 05:55:21;;;;;;;9.05;2.00;;;6.10;68.60;;;;;;5000833;28;20375;-88
2022/02/21 05:57:47;;;;;;;16.80;2.95;;;6.10;68.90;;;;;;4999827;28;20045;-88
2022/02/21 06:00:13;;;;;;;10.52;2.63;;;6.00;68.40;;;;;;5019188;28;20029;-87
2022/02/21 06:02:39;;;;;;;18.13;2.88;;;6.00;68.70;;;;;;5020782;28;20040;-87
2022/02/21 06:05:05;;;;;;;11.57;2.40;;;6.00;68.60;;;;;;5037242;28;20033;-87
2022/02/21 06:07:31;;;;;;;15.52;2.50;;;6.00;69.10;;;;;;5037339;28;20135;-87
2022/02/21 06:09:58;;;;;;;12.57;2.92;;;6.00;69.30;;;;;;5006254;28;20688;-89
2022/02/21 06:12:23;;;;;;;12.00;2.05;;;6.00;69.20;;;;;;5036794;28;20375;-88
2022/02/21 06:14:49;;;;;;;14.93;2.67;;;6.00;69.50;;;;;;5036846;28;20113;-87
2022/02/21 06:17:15;;;;;;;11.82;2.22;;;5.90;69.00;;;;;;5019249;28;20535;-87
2022/02/21 06:19:40;;;;;;;9.75;2.50;;;5.90;69.20;;;;;;5059723;28;20067;-87
2022/02/21 06:22:06;;;;;;;12.73;2.20;;;5.90;69.20;;;;;;5017687;28;20029;-87
2022/02/21 06:24:31;;;;;;;13.23;2.15;;;5.90;69.30;;;;;;5018607;28;20165;-88
2022/02/21 06:26:57;;;;;;;12.52;2.50;;;5.90;69.60;;;;;;5033487;28;20025;-87
2022/02/21 06:29:23;;;;;;;10.40;2.22;;;5.90;69.60;;;;;;5019031;28;20025;-87
2022/02/21 06:31:49;;;;;;;11.35;2.20;;;5.90;69.70;;;;;;5009677;28;20025;-87
2022/02/21 06:34:14;;;;;;;14.77;3.08;;;5.90;69.80;;;;;;5054561;28;20038;-88
2022/02/21 06:36:40;;;;;;;16.23;2.63;;;5.90;70.00;;;;;;5046820;28;20106;-89
2022/02/21 06:39:06;;;;;;;15.88;2.58;;;5.90;69.80;;;;;;5035480;28;20033;-87
2022/02/21 06:41:31;;;;;;;13.43;3.17;;;5.90;69.90;;;;;;5016416;28;20413;-88
2022/02/21 06:43:57;;;;;;;18.35;3.50;;;5.90;70.10;;;;;;5014907;28;20032;-87
2022/02/21 06:46:23;;;;;;;9.15;2.60;;;5.90;70.30;;;;;;4999606;28;20098;-88
2022/02/21 06:48:48;;;;;;;21.75;2.38;;;5.90;70.30;;;;;;5004663;28;20025;-87
2022/02/21 06:51:14;;;;;;;17.20;3.10;;;5.90;70.20;;;;;;5002753;28;20025;-88
2022/02/21 06:53:40;;;;;;;17.10;2.72;;;5.90;70.20;;;;;;5001879;28;20034;-88
2022/02/21 06:56:07;;;;;;;16.08;2.88;;;5.90;70.20;;;;;;5002139;28;20108;-88
2022/02/21 06:58:32;;;;;;;12.93;2.65;;;5.90;70.20;;;;;;5034715;28;20075;-87
2022/02/21 07:01:00;;;;;;;15.30;2.55;;;5.90;70.00;;;;;;5033907;28;20022;-88
2022/02/21 07:03:26;;;;;;;11.00;2.17;;;5.90;70.00;;;;;;5034469;28;20079;-88
2022/02/21 07:05:52;;;;;;;11.90;2.50;;;5.90;70.20;;;;;;5033705;28;20018;-87
2022/02/21 07:08:17;;;;;;;18.38;3.05;;;5.90;70.20;;;;;;5032782;28;20094;-87
2022/02/21 07:10:43;;;;;;;11.30;2.75;;;6.00;70.30;;;;;;5015847;28;20056;-88
2022/02/21 07:13:09;;;;;;;13.77;2.50;;;6.00;70.30;;;;;;5001119;28;20036;-88
2022/02/21 07:15:35;;;;;;;12.35;2.42;;;6.00;70.50;;;;;;5001149;28;20394;-88
2022/02/21 07:18:00;;;;;;;12.52;2.40;;;6.00;70.40;;;;;;4999757;28;20117;-87
2022/02/21 07:20:26;;;;;;;15.10;2.53;;;6.00;70.60;;;;;;5016087;28;20037;-88
2022/02/21 07:22:53;;;;;;;16.38;2.72;;;6.00;70.80;;;;;;5015699;28;20028;-88
2022/02/21 07:25:18;;;;;;;12.30;2.55;;;6.10;70.80;;;;;;5031170;28;20033;-88
2022/02/21 07:27:49;;;;;;;14.63;2.25;;;6.10;70.90;;;;;;5032905;28;20048;-88
2022/02/21 07:30:17;;;;;;;17.58;2.38;;;6.10;70.90;;;;;;5015222;28;20033;-90
2022/02/21 07:32:43;;;;;;;14.02;2.88;;;6.10;70.80;;;;;;5031238;28;20064;-89
2022/02/21 07:35:10;;;;;;;13.10;2.38;;;6.10;70.70;;;;;;5014345;28;20363;-89
2022/02/21 07:37:39;;;;;;;14.95;2.50;;;6.10;70.90;;;;;;5031403;28;20029;-90
2022/02/21 07:40:05;;;;;;;14.00;2.63;;;6.20;70.60;;;;;;5031586;28;20435;-89
2022/02/21 07:42:31;;;;;;;13.05;2.47;;;6.20;71.00;;;;;;5011896;28;20084;-88
2022/02/21 07:44:56;;;;;;;15.32;3.00;;;6.20;70.90;;;;;;5047727;28;20052;-89
2022/02/21 07:47:22;;;;;;;12.10;2.50;;;6.20;70.70;;;;;;5015010;28;20029;-89
2022/02/21 07:49:48;;;;;;;14.73;3.00;;;6.20;70.70;;;;;;5031442;28;20021;-88
2022/02/21 07:52:14;;;;;;;14.00;2.63;;;6.20;70.50;;;;;;5031341;28;20026;-90
2022/02/21 07:54:39;;;;;;;12.82;2.67;;;6.20;70.50;;;;;;5047904;28;20052;-89
2022/02/21 07:57:06;;;;;;;15.65;2.40;;;6.20;70.50;;;;;;5047566;28;20049;-89
2022/02/21 07:59:33;;;;;;;12.85;2.70;;;6.30;70.50;;;;;;5030876;28;20021;-90
2022/02/21 08:01:58;;;;;;;19.50;3.47;;;6.30;70.70;;;;;;5030280;28;20014;-88
2022/02/21 08:04:25;;;;;;;14.48;2.95;;;6.30;71.00;;;;;;5014024;28;20029;-87
2022/02/21 08:06:52;;;;;;;14.02;2.10;;;6.30;71.20;;;;;;5043384;28;20028;-88
2022/02/21 08:09:20;;;;;;;11.02;2.00;;;6.40;71.30;;;;;;5032591;28;20032;-87
2022/02/21 08:11:46;;;;;;;13.60;2.60;;;6.40;71.60;;;;;;5011083;28;20494;-88
2022/02/21 08:14:12;;;;;;;13.20;3.45;;;6.40;71.30;;;;;;5027497;28;20424;-88
2022/02/21 08:16:37;;;;;;;18.45;2.78;;;6.40;70.70;;;;;;5027954;28;20034;-87
2022/02/21 08:19:03;;;;;;;14.85;3.08;;;6.40;70.60;;;;;;5009656;28;20029;-87
2022/02/21 08:21:29;;;;;;;16.27;2.53;;;6.40;70.70;;;;;;5025254;28;20036;-87
2022/02/21 08:23:54;;;;;;;15.07;2.75;;;6.40;70.90;;;;;;5045934;28;20493;-87
2022/02/21 08:26:20;;;;;;;13.45;2.40;;;6.40;70.80;;;;;;5026682;28;20029;-87
2022/02/21 08:28:46;;;;;;;11.27;2.83;;;6.30;70.50;;;;;;5046303;28;20033;-88
2022/02/21 08:31:12;;;;;;;13.88;2.20;;;6.40;70.90;;;;;;5042929;28;20021;-87
2022/02/21 08:33:45;;;;;;;20.48;2.70;;;6.40;71.20;;;;;;5030167;28;20041;-87
2022/02/21 08:36:13;;;;;;;13.40;2.42;;;6.40;70.20;;;;;;5030857;28;20047;-87
2022/02/21 08:38:39;;;;;;;12.85;2.55;;;6.40;70.50;;;;;;5028722;28;20067;-89
2022/02/21 08:41:05;;;;;;;11.55;2.47;;;6.40;70.70;;;;;;5019243;28;20068;-89
2022/02/21 08:43:32;;;;;;;13.70;3.00;;;6.40;70.80;;;;;;5028765;28;20033;-87
2022/02/21 08:45:57;;;;;;;15.75;2.40;;;6.40;71.60;;;;;;5029764;28;20025;-88
2022/02/21 08:48:23;;;;;;;16.08;1.98;;;6.40;71.20;;;;;;5028482;28;20486;-87
2022/02/21 08:50:50;;;;;;;11.25;2.45;;;6.40;71.40;;;;;;5015345;28;20022;-89
2022/02/21 08:53:16;;;;;;;12.38;2.28;;;6.30;71.40;;;;;;5033776;28;20026;-86
2022/02/21 08:55:42;;;;;;;10.00;2.15;;;6.30;71.80;;;;;;5031933;28;20037;-88
2022/02/21 08:58:08;;;;;;;11.88;2.42;;;6.30;72.20;;;;;;5019921;28;20485;-89
2022/02/21 09:00:33;;;;;;;15.98;2.83;;;6.30;73.10;;;;;;5029874;28;20517;-89
2022/02/21 09:02:59;;;;;;;17.98;3.03;;;6.20;74.60;;;;;;4997305;28;20034;-88
2022/02/21 09:05:25;;;;;;;11.07;1.83;;;6.20;75.50;;;;;;5029351;28;20026;-89
2022/02/21 09:07:52;;;;;;;13.73;2.20;;;6.10;76.60;;;;;;5014956;28;20121;-89
2022/02/21 09:10:17;;;;;;;12.38;1.98;;;5.90;77.70;;;;;;5046654;28;20025;-90
2022/02/21 09:12:43;;;;;;;16.75;3.25;;;5.90;78.20;;;;;;5016932;28;20063;-89
2022/02/21 09:15:09;;;;;;;16.98;2.42;;;5.80;78.60;;;;;;5029351;28;20521;-91
2022/02/21 09:17:34;;;;;;;17.38;2.38;;;5.80;79.20;;;;;;5034437;28;20033;-90
2022/02/21 09:20:00;;;;;;;13.85;2.15;;;5.70;79.70;;;;;;5030507;28;20038;-90
2022/02/21 09:22:26;;;;;;;19.70;2.50;;;5.70;79.90;;;;;;5028375;28;20022;-91
2022/02/21 09:24:51;;;;;;;16.83;2.47;;;5.60;80.20;;;;;;5026778;28;20033;-91
2022/02/21 09:27:18;;;;;;;14.05;2.63;;;5.70;80.40;;;;;;5018136;28;20037;-90
2022/02/21 09:29:44;;;;;;;10.75;2.50;;;5.60;80.60;;;;;;5036232;28;20018;-91
2022/02/21 09:32:10;;;;;;;12.68;2.78;;;5.50;81.20;;;;;;5021182;28;20053;-90
2022/02/21 09:34:36;;;;;;;12.35;2.80;;;5.40;81.90;;;;;;5041879;28;20063;-91
2022/02/21 09:37:02;;;;;;;14.30;2.63;;;5.30;82.40;;;;;;5065768;28;20097;-90
2022/02/21 09:39:27;;;;;;;15.40;2.50;;;5.30;82.90;;;;;;5018782;28;20021;-91
2022/02/21 09:41:54;;;;;;;15.05;3.13;;;5.20;83.10;;;;;;5006793;28;20043;-91
2022/02/21 09:44:20;;;;;;;14.73;3.65;;;5.10;83.50;;;;;;5034778;28;20104;-91
2022/02/21 09:46:48;;;;;;;12.48;2.25;;;5.10;83.80;;;;;;5011653;28;20051;-91
2022/02/21 09:49:16;;;;;;;13.90;3.05;;;5.10;84.30;;;;;;5052318;28;20485;-91
2022/02/21 09:51:42;;;;;;;10.73;2.35;;;5.10;84.30;;;;;;5047072;28;20113;-91
2022/02/21 09:54:11;;;;;;;10.85;2.65;;;5.10;84.60;;;;;;5014189;28;20049;-91
2022/02/21 09:56:37;;;;;;;11.13;2.10;;;5.10;85.40;;;;;;5039915;28;20434;-91
2022/02/21 09:59:03;;;;;;;12.90;2.38;;;5.00;85.00;;;;;;5032185;28;20509;-91
2022/02/21 10:01:28;;;;;;;12.95;2.33;;;5.00;85.60;;;;;;5034902;28;20033;-92
2022/02/21 10:03:55;;;;;;;10.65;2.08;;;5.00;85.80;;;;;;5050835;28;20030;-91
2022/02/21 10:06:22;;;;;;;10.68;2.33;;;4.90;85.90;;;;;;5030303;28;20075;-91
2022/02/21 10:09:00;;;;;;;12.75;2.58;;;5.00;86.30;;;;;;5014472;28;20084;-90
2022/02/21 10:11:30;;;;;;;12.38;2.70;;;5.00;86.30;;;;;;5050229;28;20482;-91
2022/02/21 10:14:08;;;;;;;11.07;2.67;;;5.00;86.60;;;;;;5046234;28;20096;-91
2022/02/21 10:16:44;;;;;;;12.23;3.15;;;5.00;86.80;;;;;;5058435;28;20059;-90
2022/02/21 10:19:23;;;;;;;16.13;2.90;;;5.00;86.90;;;;;;5022673;28;20026;-92
2022/02/21 10:22:06;;;;;;;16.33;3.33;;;5.10;86.90;;;;;;5047725;28;20038;-90
2022/02/21 10:24:41;;;;;;;18.33;3.47;;;5.00;87.10;;;;;;5031409;28;20114;-91
2022/02/21 10:27:19;;;;;;;12.00;2.88;;;5.10;87.50;;;;;;5038089;28;20152;-91
2022/02/21 10:30:02;;;;;;;16.95;2.97;;;5.00;87.80;;;;;;5036925;28;20025;-92
2022/02/21 10:32:31;;;;;;;13.50;2.83;;;5.00;87.90;;;;;;5050485;28;20029;-91
2022/02/21 10:35:21;;;;;;;17.08;3.45;;;5.00;88.00;;;;;;5014936;28;20081;-91
2022/02/21 10:37:48;;;;;;;11.48;2.72;;;5.00;88.00;;;;;;5015345;28;20018;-91
2022/02/21 10:40:25;;;;;;;16.50;3.97;;;5.00;87.90;;;;;;5025356;28;20029;-91
2022/02/21 10:43:14;;;;;;;17.95;3.10;;;5.00;88.10;;;;;;5027321;28;20045;-92
2022/02/21 10:45:41;;;;;;;13.98;2.15;;;5.00;88.20;;;;;;5014279;28;20021;-92
2022/02/21 10:48:10;;;;;;;12.18;2.80;;;5.00;88.20;;;;;;5016261;28;20018;-91
2022/02/21 10:50:38;;;;;;;12.77;2.40;;;4.90;88.30;;;;;;5013565;28;20025;-91
2022/02/21 10:53:12;;;;;;;18.88;3.08;;;4.90;88.50;;;;;;5020648;28;20022;-93
2022/02/21 10:55:40;;;;;;;12.45;2.42;;;4.90;88.80;;;;;;5021806;28;20045;-91
2022/02/21 10:58:25;;;;;;;9.75;2.20;;;4.90;89.00;;;;;;5024011;28;20128;-92
2022/02/21 11:00:53;;;;;;;12.50;2.08;;;4.80;88.90;;;;;;5033967;28;20064;-92
2022/02/21 11:03:21;;;;;;;11.50;2.30;;;4.80;89.00;;;;;;5022359;28;20109;-90
2022/02/21 11:05:48;;;;;;;15.70;3.10;;;4.80;89.40;;;;;;5013548;28;20037;-90
2022/02/21 11:08:16;;;;;;;14.68;2.85;;;4.90;89.50;;;;;;5053486;28;20026;-91
2022/02/21 11:10:48;;;;;;;15.15;2.47;;;4.90;89.70;;;;;;5026865;28;20021;-91
2022/02/21 11:13:16;;;;;;;12.07;2.63;;;4.90;89.90;;;;;;5032089;28;20033;-91
2022/02/21 11:15:42;;;;;;;16.10;2.30;;;5.00;90.00;;;;;;5027181;28;20076;-91
2022/02/21 11:18:17;;;;;;;15.02;2.70;;;4.90;90.10;;;;;;5024547;28;20119;-90
2022/02/21 11:20:44;;;;;;;13.45;2.30;;;4.90;90.10;;;;;;5030163;28;20057;-91
2022/02/21 11:23:10;;;;;;;13.13;2.45;;;4.90;90.10;;;;;;5017978;28;20030;-91
2022/02/21 11:26:12;;;;;;;15.73;3.53;;;5.00;90.20;;;;;;5035822;28;20116;-91
2022/02/21 11:29:01;;;;;;;14.38;2.80;;;5.00;90.30;;;;;;5021470;28;20556;-92
2022/02/21 11:31:40;;;;;;;15.30;2.85;;;5.10;90.30;;;;;;5031275;28;20032;-91
2022/02/21 11:34:09;;;;;;;16.38;3.67;;;5.00;90.40;;;;;;5013565;28;20040;-92
2022/02/21 11:36:36;;;;;;;12.10;2.60;;;5.00;90.40;;;;;;5027416;28;20025;-92
2022/02/21 11:39:22;;;;;;;15.45;2.83;;;5.10;90.50;;;;;;5014235;28;20061;-90
2022/02/21 11:42:04;;;;;;;13.35;2.53;;;5.20;90.60;;;;;;5027254;28;20022;-92
2022/02/21 11:44:44;;;;;;;22.70;3.17;;;5.20;90.60;;;;;;5048968;28;20473;-90
2022/02/21 11:47:10;;;;;;;13.98;3.00;;;5.30;90.70;;;;;;5021053;28;20024;-90
2022/02/21 11:49:37;;;;;;;17.70;3.38;;;5.30;90.60;;;;;;5048521;28;20025;-93
2022/02/21 11:52:29;;;;;;;17.83;3.17;;;5.30;90.80;;;;;;5054734;28;20018;-91
2022/02/21 11:54:54;;;;;;;26.20;4.23;;;5.40;90.80;;;;;;5036424;28;20021;-92
2022/02/21 11:57:37;;;;;;;28.52;4.22;;;5.50;91.00;;;;;;5046754;28;20104;-92
2022/02/21 12:00:40;;;;;;;19.48;3.58;;;5.50;91.20;;;;;;5050680;28;20098;-91
2022/02/21 12:03:21;;;;;;;29.15;4.75;;;5.60;91.20;;;;;;5037527;28;20505;-92
2022/02/21 12:05:49;;;;;;;25.35;4.15;;;5.60;91.50;;;;;;5047757;28;20054;-93
2022/02/21 12:08:40;;;;;;;29.15;4.82;;;5.70;91.60;;;;;;5024969;28;20021;-92
2022/02/21 12:11:13;;;;;;;28.17;4.97;;;5.70;91.70;;;;;;5017822;28;20045;-92
2022/02/21 12:13:45;;;;;;;27.40;5.45;;;5.80;91.90;;;;;;5023813;28;20523;-91
2022/02/21 12:16:12;;;;;;;26.67;5.72;;;5.90;92.00;;;;;;5038135;28;20598;-91
2022/02/21 12:18:44;;;;;;;32.10;4.68;;;6.00;91.90;;;;;;5039675;28;20040;-92
2022/02/21 12:21:15;;;;;;;30.70;5.63;;;6.10;91.90;;;;;;5018257;28;20025;-90
2022/02/21 12:23:57;;;;;;;31.52;5.03;;;6.10;91.90;;;;;;5017349;28;20113;-90
2022/02/21 12:26:24;;;;;;;31.83;5.50;;;6.20;91.90;;;;;;5048419;28;20033;-91
2022/02/21 12:29:15;;;;;;;25.08;4.38;;;6.30;91.90;;;;;;5017760;28;20025;-90
2022/02/21 12:31:56;;;;;;;25.85;5.43;;;6.30;91.90;;;;;;5022407;28;20407;-90
2022/02/21 12:34:25;;;;;;;27.67;5.67;;;6.40;91.90;;;;;;5024259;28;20030;-90
2022/02/21 12:36:51;;;;;;;20.30;3.88;;;6.40;92.00;;;;;;5014282;28;20872;-90
2022/02/21 12:39:26;;;;;;;24.25;4.28;;;6.50;92.20;;;;;;5038824;28;20041;-90
2022/02/21 12:41:52;;;;;;;28.92;5.30;;;6.50;92.00;;;;;;5022992;28;20382;-89
2022/02/21 12:44:19;;;;;;;27.95;4.15;;;6.60;92.00;;;;;;5027135;28;20539;-91
2022/02/21 12:46:50;;;;;;;26.33;5.20;;;6.60;92.00;;;;;;5013715;28;20553;-92
2022/02/21 12:49:21;;;;;;;23.05;5.57;;;6.60;92.00;;;;;;5017895;28;20045;-90
2022/02/21 12:51:55;;;;;;;30.70;5.07;;;6.70;92.00;;;;;;5009850;28;20111;-89